Time;durP1;ratioP1;P1;durP2;ratioP2;P2;SDS_P1;SDS_P2;PMS_P1;PMS_P2;Temp;Humidity;BMP_temperature;BMP_pressure;BME280_temperature;BME280_humidity;BME280_pressure;Samples;Min_cycle;Max_cycle;Signal;HPM_P1;HPM_P2
2021/09/27 06:20:04;;;;;;;16.60;14.23;;;14.80;99.90;;;;;;5780944;24;20411;-84
2021/09/27 06:23:24;;;;;;;15.27;13.07;;;14.90;99.90;;;;;;5871231;24;20439;-82
2021/09/27 06:26:20;;;;;;;16.17;14.47;;;15.10;99.90;;;;;;5911311;24;20427;-84
2021/09/27 06:29:07;;;;;;;16.23;14.07;;;15.20;99.90;;;;;;5924888;24;20431;-83
2021/09/27 06:32:34;;;;;;;19.63;14.37;;;15.20;99.90;;;;;;5929822;24;20438;-84
2021/09/27 06:35:21;;;;;;;15.10;12.30;;;15.20;99.90;;;;;;5930656;24;20431;-84
2021/09/27 06:37:54;;;;;;;13.63;12.23;;;15.20;99.90;;;;;;5980015;23;20442;-84
2021/09/27 06:40:30;;;;;;;14.43;12.50;;;15.20;99.90;;;;;;6075936;23;20428;-84
2021/09/27 06:43:18;;;;;;;16.67;15.07;;;15.20;99.90;;;;;;6074302;23;20465;-83
2021/09/27 06:45:45;;;;;;;15.50;12.93;;;15.30;99.90;;;;;;6075125;23;20400;-84
2021/09/27 06:48:12;;;;;;;14.10;11.93;;;15.40;99.90;;;;;;6074777;23;20434;-86
2021/09/27 06:50:39;;;;;;;14.87;13.13;;;15.60;99.90;;;;;;6072224;23;20424;-84
2021/09/27 06:53:05;;;;;;;13.67;12.20;;;15.50;99.90;;;;;;6073529;23;20443;-83
2021/09/27 06:55:32;;;;;;;14.43;12.07;;;15.60;99.90;;;;;;6075006;23;20418;-82
2021/09/27 06:57:59;;;;;;;12.83;11.53;;;15.70;99.90;;;;;;6076713;23;20437;-82
2021/09/27 07:00:27;;;;;;;12.20;11.00;;;15.80;99.90;;;;;;6076780;23;20433;-82
2021/09/27 07:02:54;;;;;;;12.07;10.60;;;16.00;99.90;;;;;;6076784;23;20434;-84
2021/09/27 07:05:21;;;;;;;13.20;11.83;;;16.10;99.90;;;;;;6077908;23;20410;-85
2021/09/27 07:07:48;;;;;;;10.87;9.77;;;16.20;99.90;;;;;;6078815;23;20414;-84
2021/09/27 07:10:18;;;;;;;10.77;9.77;;;16.10;99.90;;;;;;6078396;23;20410;-83
2021/09/27 07:12:44;;;;;;;12.70;10.70;;;16.30;99.90;;;;;;6077057;23;20468;-83
2021/09/27 07:15:12;;;;;;;11.57;10.40;;;16.30;99.90;;;;;;6077958;23;20505;-83
2021/09/27 07:17:41;;;;;;;11.80;10.60;;;16.40;99.90;;;;;;6078504;23;20511;-83
2021/09/27 07:20:11;;;;;;;12.50;11.30;;;16.40;99.90;;;;;;6077522;23;20415;-83
2021/09/27 07:22:38;;;;;;;11.23;10.10;;;16.50;99.90;;;;;;6077315;23;20441;-83
2021/09/27 07:25:08;;;;;;;11.07;10.07;;;16.40;99.90;;;;;;6078676;23;20423;-83
2021/09/27 07:27:34;;;;;;;10.80;9.80;;;16.50;99.90;;;;;;6076926;23;20416;-83
2021/09/27 07:30:02;;;;;;;11.67;10.33;;;16.50;99.90;;;;;;6076546;23;20415;-83
2021/09/27 07:32:28;;;;;;;11.50;10.20;;;16.60;99.90;;;;;;6075725;23;20435;-81
2021/09/27 07:34:57;;;;;;;11.50;9.40;;;16.70;99.90;;;;;;6068367;23;20421;-84
2021/09/27 07:37:24;;;;;;;10.20;9.20;;;16.90;99.90;;;;;;6069139;23;20439;-86
2021/09/27 07:39:50;;;;;;;11.43;10.17;;;16.80;99.90;;;;;;6070918;23;20423;-82
2021/09/27 07:42:18;;;;;;;11.80;10.30;;;16.70;99.90;;;;;;6073740;23;20444;-84
2021/09/27 07:44:44;;;;;;;11.83;9.57;;;16.90;99.90;;;;;;6074841;23;20416;-84
2021/09/27 07:47:11;;;;;;;12.10;10.03;;;16.90;99.90;;;;;;6077895;23;20416;-84
2021/09/27 07:49:38;;;;;;;10.30;9.30;;;17.00;99.90;;;;;;6074419;23;20416;-84
2021/09/27 07:52:06;;;;;;;10.77;9.50;;;17.10;99.90;;;;;;6074702;23;20439;-86
2021/09/27 07:54:36;;;;;;;9.33;8.43;;;17.20;99.90;;;;;;6075079;23;20416;-82
2021/09/27 07:57:03;;;;;;;9.47;8.43;;;17.30;99.90;;;;;;6074776;23;21309;-84
2021/09/27 07:59:30;;;;;;;10.13;9.23;;;17.40;99.90;;;;;;6075108;23;20411;-85
2021/09/27 08:01:57;;;;;;;10.03;9.13;;;17.50;99.90;;;;;;6077507;23;20437;-83
2021/09/27 08:04:24;;;;;;;11.10;9.63;;;17.70;99.90;;;;;;6077890;23;20443;-85
2021/09/27 08:06:50;;;;;;;10.97;8.23;;;17.70;99.90;;;;;;6073552;23;20415;-85
2021/09/27 08:09:19;;;;;;;8.80;7.90;;;17.70;99.90;;;;;;6076572;23;20418;-85
2021/09/27 08:11:46;;;;;;;9.67;8.70;;;17.80;99.90;;;;;;6072414;23;20416;-84
2021/09/27 08:14:14;;;;;;;9.33;8.43;;;17.90;99.90;;;;;;6073855;23;20419;-85
2021/09/27 08:16:40;;;;;;;9.43;8.17;;;18.00;99.90;;;;;;6075278;23;20447;-85
2021/09/27 08:19:07;;;;;;;8.13;7.33;;;18.10;99.90;;;;;;6073887;23;20425;-85
2021/09/27 08:21:34;;;;;;;9.37;7.70;;;18.30;99.90;;;;;;6073717;23;20416;-85
2021/09/27 08:24:01;;;;;;;7.37;6.60;;;18.30;99.90;;;;;;6078349;23;20413;-83
2021/09/27 08:27:02;;;;;;;6.87;6.13;;;18.30;99.90;;;;;;6073163;23;20500;-85
2021/09/27 08:29:30;;;;;;;8.27;5.60;;;18.40;99.90;;;;;;6077371;23;20472;-85
2021/09/27 08:31:57;;;;;;;7.40;5.83;;;18.50;99.90;;;;;;6077654;23;20500;-85
2021/09/27 08:40:54;;;;;;;7.93;7.17;;;18.90;99.90;;;;;;6071739;23;20480;-85
2021/09/27 08:43:36;;;;;;;5.93;5.43;;;18.90;99.90;;;;;;6070517;23;20535;-84
2021/09/27 08:46:08;;;;;;;6.87;6.17;;;19.10;99.90;;;;;;6087028;23;20467;-80
2021/09/27 08:48:40;;;;;;;5.30;4.90;;;19.30;99.90;;;;;;6107621;23;20396;-80
2021/09/27 08:51:07;;;;;;;5.50;5.10;;;19.50;99.90;;;;;;6113165;23;20406;-80
2021/09/27 08:53:38;;;;;;;5.43;5.03;;;19.60;99.90;;;;;;6105409;23;20418;-84
2021/09/27 08:56:14;;;;;;;4.47;4.07;;;19.70;99.90;;;;;;6102295;23;20443;-84
2021/09/27 08:58:50;;;;;;;5.23;4.73;;;19.70;99.90;;;;;;6101650;23;20397;-84
2021/09/27 09:01:22;;;;;;;4.10;3.80;;;19.70;99.90;;;;;;6103073;23;20396;-86
2021/09/27 09:03:53;;;;;;;5.67;5.17;;;19.80;99.90;;;;;;6102487;23;20400;-84
2021/09/27 09:06:27;;;;;;;4.77;4.37;;;19.90;99.90;;;;;;6102184;23;20435;-82
2021/09/27 09:09:01;;;;;;;4.83;4.43;;;20.10;99.90;;;;;;6101972;23;20464;-84
2021/09/27 09:11:37;;;;;;;5.13;4.77;;;20.10;99.90;;;;;;6102003;23;20396;-85
2021/09/27 09:14:13;;;;;;;5.30;4.43;;;20.30;99.90;;;;;;6104217;23;20448;-86
2021/09/27 09:16:41;;;;;;;4.40;4.00;;;20.30;99.90;;;;;;6104155;23;20458;-84
2021/09/27 09:19:12;;;;;;;4.60;4.20;;;20.50;99.90;;;;;;6103664;23;20752;-84
2021/09/27 09:21:45;;;;;;;4.67;4.27;;;20.60;99.90;;;;;;6103013;23;20480;-84
2021/09/27 09:24:15;;;;;;;5.23;4.83;;;20.60;99.90;;;;;;6103564;23;20484;-83
2021/09/27 09:26:50;;;;;;;5.37;4.73;;;20.90;99.90;;;;;;6102128;23;20433;-83
2021/09/27 09:29:24;;;;;;;5.37;3.90;;;21.00;99.90;;;;;;6108468;23;20432;-84
2021/09/27 09:32:00;;;;;;;4.13;3.67;;;21.00;99.90;;;;;;6102305;23;20419;-83
2021/09/27 09:34:34;;;;;;;4.50;4.10;;;21.10;99.90;;;;;;6101810;23;20885;-83
2021/09/27 09:37:38;;;;;;;4.27;3.87;;;21.00;99.90;;;;;;6101705;23;20498;-85
2021/09/27 09:43:55;;;;;;;5.57;4.17;;;20.90;99.90;;;;;;6098741;23;20416;-85
2021/09/27 09:46:57;;;;;;;4.77;4.47;;;21.10;99.90;;;;;;6121268;23;21033;-86
2021/09/27 09:49:25;;;;;;;3.63;3.33;;;21.00;99.90;;;;;;6132371;23;20419;-86
2021/09/27 09:52:04;;;;;;;5.33;4.83;;;21.20;99.90;;;;;;6132030;23;20428;-86
2021/09/27 09:55:42;;;;;;;4.47;4.03;;;21.30;99.90;;;;;;6133527;23;20435;-86
2021/09/27 09:58:58;;;;;;;4.70;4.40;;;21.10;99.90;;;;;;6132523;23;20444;-85
2021/09/27 10:01:29;;;;;;;4.90;4.50;;;21.20;99.90;;;;;;6131773;23;20464;-83
2021/09/27 10:04:00;;;;;;;5.33;4.83;;;21.30;99.90;;;;;;6131646;23;20393;-83
2021/09/27 10:06:44;;;;;;;4.27;3.93;;;21.50;99.90;;;;;;6130580;23;20443;-83
2021/09/27 10:09:18;;;;;;;3.63;3.33;;;21.60;99.90;;;;;;6131058;23;20404;-84
2021/09/27 10:11:58;;;;;;;4.13;3.73;;;21.80;99.90;;;;;;6128827;23;20407;-85
2021/09/27 10:14:34;;;;;;;3.80;3.50;;;21.90;99.70;;;;;;6129681;23;20420;-83
2021/09/27 10:17:11;;;;;;;4.10;3.80;;;21.70;99.30;;;;;;6128152;23;20473;-84
2021/09/27 10:19:52;;;;;;;3.57;3.37;;;21.70;99.50;;;;;;6131429;23;20433;-82
2021/09/27 10:22:24;;;;;;;3.77;3.40;;;21.90;99.20;;;;;;6138047;23;20398;-81
2021/09/27 10:24:56;;;;;;;3.67;3.37;;;22.00;98.30;;;;;;6136585;23;20407;-84
2021/09/27 10:27:27;;;;;;;2.53;2.40;;;22.30;97.50;;;;;;6133452;23;20427;-82
2021/09/27 10:29:57;;;;;;;4.37;3.97;;;22.30;98.00;;;;;;6132659;23;20404;-80
2021/09/27 10:35:45;;;;;;;3.20;2.90;;;22.50;97.80;;;;;;6109636;23;20946;-80
2021/09/27 10:38:21;;;;;;;3.00;2.53;;;22.40;97.40;;;;;;6125033;23;20450;-79
2021/09/27 10:40:51;;;;;;;4.10;3.43;;;22.70;96.70;;;;;;6124566;23;20445;-80
2021/09/27 11:04:36;;;;;;;3.63;3.33;;;24.80;93.70;;;;;;5974658;23;20405;-80
2021/09/27 11:10:56;;;;;;;2.47;2.37;;;25.80;90.00;;;;;;6063994;23;20929;-82
2021/09/27 11:24:17;;;;;;;2.60;2.40;;;27.60;82.60;;;;;;6118467;23;20434;-82
2021/09/27 11:34:20;;;;;;;2.70;2.50;;;27.40;80.00;;;;;;6112825;23;20452;-81
2021/09/27 11:37:20;;;;;;;2.10;2.00;;;28.00;79.90;;;;;;6109970;23;20444;-82
2021/09/27 11:54:13;;;;;;;3.00;2.80;;;26.60;81.30;;;;;;5980365;24;21038;-82
2021/09/27 12:03:40;;;;;;;2.60;2.40;;;26.70;80.50;;;;;;6128456;23;20970;-82
2021/09/27 12:06:19;;;;;;;2.80;2.60;;;26.50;79.60;;;;;;6129741;23;20537;-82
2021/09/27 12:08:51;;;;;;;2.90;2.60;;;26.20;80.50;;;;;;6130522;23;20423;-82
2021/09/27 12:11:22;;;;;;;2.17;1.97;;;26.50;82.30;;;;;;6129839;23;20425;-81
2021/09/27 12:14:08;;;;;;;2.90;2.67;;;26.50;82.60;;;;;;6129741;23;20447;-81
2021/09/27 12:26:04;;;;;;;2.80;2.60;;;25.30;84.60;;;;;;6097938;23;20434;-83
2021/09/27 12:28:35;;;;;;;3.50;3.30;;;25.60;85.60;;;;;;6127444;23;20799;-85
2021/09/27 12:34:34;;;;;;;3.27;2.60;;;25.70;85.10;;;;;;6137000;23;20449;-84
2021/09/27 12:37:07;;;;;;;4.17;3.80;;;25.90;86.30;;;;;;6100953;23;20505;-82
2021/09/27 12:39:38;;;;;;;5.60;3.97;;;26.30;85.50;;;;;;6128933;23;20514;-82
2021/09/27 12:42:09;;;;;;;3.47;3.17;;;26.70;84.80;;;;;;6128654;23;20482;-82
2021/09/27 12:44:39;;;;;;;2.97;2.60;;;26.90;83.10;;;;;;6132674;23;20400;-83
2021/09/27 12:47:10;;;;;;;3.70;3.50;;;26.60;83.90;;;;;;6134078;23;20462;-82
2021/09/27 12:49:40;;;;;;;2.37;2.17;;;26.20;83.30;;;;;;6135004;23;20450;-82
2021/09/27 12:52:10;;;;;;;3.10;2.83;;;26.00;84.10;;;;;;6133677;23;20479;-82
2021/09/27 12:54:43;;;;;;;3.17;2.83;;;25.50;85.00;;;;;;6130957;23;20504;-82
2021/09/27 12:57:22;;;;;;;2.87;2.67;;;25.40;85.30;;;;;;6130853;23;20950;-82
2021/09/27 12:59:51;;;;;;;2.30;2.20;;;25.20;85.20;;;;;;6131944;23;20403;-81
2021/09/27 13:02:19;;;;;;;3.53;3.17;;;25.00;86.40;;;;;;6132357;23;20423;-82
2021/09/27 13:04:52;;;;;;;3.03;2.83;;;25.10;87.80;;;;;;6132143;23;20413;-82
2021/09/27 13:07:20;;;;;;;2.30;2.10;;;24.70;87.50;;;;;;6132617;23;20483;-82
2021/09/27 13:10:16;;;;;;;3.80;2.70;;;24.40;87.20;;;;;;6130983;23;20417;-82
2021/09/27 13:12:58;;;;;;;2.63;2.43;;;24.70;88.50;;;;;;6132330;23;20401;-82
2021/09/27 13:15:32;;;;;;;2.50;2.30;;;24.60;88.00;;;;;;6132077;23;20524;-81
2021/09/27 13:18:02;;;;;;;2.93;2.70;;;24.50;88.80;;;;;;6131840;23;20439;-82
2021/09/27 13:20:33;;;;;;;2.73;2.53;;;24.30;89.80;;;;;;6130885;23;20423;-81
2021/09/27 13:23:00;;;;;;;3.37;3.13;;;24.30;89.00;;;;;;6131295;23;20407;-82
2021/09/27 13:25:31;;;;;;;2.30;2.10;;;24.10;89.50;;;;;;6127812;23;20749;-82
2021/09/27 13:28:01;;;;;;;2.60;2.20;;;24.00;89.60;;;;;;6132830;23;20414;-82
2021/09/27 13:30:33;;;;;;;3.10;2.77;;;23.50;89.50;;;;;;6138720;23;20482;-82
2021/09/27 13:33:08;;;;;;;2.50;2.10;;;23.50;90.50;;;;;;6133357;23;20403;-82
2021/09/27 13:35:37;;;;;;;2.53;2.43;;;23.30;90.20;;;;;;6132227;23;20443;-82
2021/09/27 13:38:11;;;;;;;2.50;2.40;;;23.10;90.50;;;;;;6133019;23;20846;-82
2021/09/27 13:40:42;;;;;;;2.60;2.40;;;23.10;90.90;;;;;;6132396;23;20398;-82
2021/09/27 13:43:25;;;;;;;2.57;2.20;;;23.20;90.80;;;;;;6132778;23;20492;-83
2021/09/27 13:45:56;;;;;;;3.50;3.20;;;23.20;90.70;;;;;;6132533;23;20433;-81
2021/09/27 13:48:23;;;;;;;2.67;2.47;;;23.20;90.50;;;;;;6133365;23;20406;-83
2021/09/27 13:50:51;;;;;;;2.50;2.30;;;23.40;90.80;;;;;;6133369;23;20412;-81
2021/09/27 13:53:26;;;;;;;2.20;2.00;;;23.20;91.00;;;;;;6133918;23;20438;-82
2021/09/27 13:55:55;;;;;;;1.93;1.83;;;23.10;90.80;;;;;;6133140;23;20431;-82
2021/09/27 13:58:22;;;;;;;1.90;1.80;;;23.00;90.20;;;;;;6133119;23;21001;-81
2021/09/27 14:00:50;;;;;;;2.20;2.10;;;23.00;90.70;;;;;;6134018;23;20408;-82
2021/09/27 14:03:18;;;;;;;3.20;3.00;;;23.10;90.60;;;;;;6130977;23;20715;-81
2021/09/27 14:05:45;;;;;;;2.63;2.43;;;22.90;92.30;;;;;;6131428;23;20443;-83
2021/09/27 14:08:16;;;;;;;3.27;3.10;;;22.70;92.70;;;;;;6131828;23;20503;-82
2021/09/27 14:10:44;;;;;;;3.57;3.27;;;22.60;92.90;;;;;;6131110;23;20437;-82
2021/09/27 14:13:13;;;;;;;4.63;3.10;;;22.60;93.20;;;;;;6131939;23;20411;-82
2021/09/27 14:15:43;;;;;;;2.90;2.70;;;22.70;93.40;;;;;;6129615;23;20520;-81
2021/09/27 14:18:11;;;;;;;2.80;2.60;;;22.70;93.10;;;;;;6130575;23;20435;-81
2021/09/27 14:20:41;;;;;;;2.60;2.40;;;22.70;92.90;;;;;;6127738;23;20450;-81
2021/09/27 14:23:08;;;;;;;3.37;3.07;;;22.70;93.00;;;;;;6136590;23;20852;-82
2021/09/27 14:25:35;;;;;;;3.00;2.70;;;22.70;93.20;;;;;;6138764;23;20438;-82
2021/09/27 14:28:02;;;;;;;4.63;3.33;;;22.70;92.60;;;;;;6133372;23;20411;-82
2021/09/27 14:30:29;;;;;;;3.20;2.90;;;22.90;92.70;;;;;;6134139;23;20409;-81
2021/09/27 14:32:56;;;;;;;2.63;2.43;;;23.00;92.90;;;;;;6134934;23;20418;-82
2021/09/27 14:35:23;;;;;;;3.20;2.87;;;22.90;92.70;;;;;;6134868;23;20588;-82
2021/09/27 14:37:52;;;;;;;2.53;2.33;;;22.80;92.80;;;;;;6136009;23;20443;-82
2021/09/27 14:40:21;;;;;;;2.57;2.37;;;23.00;92.90;;;;;;6135988;23;20416;-82
2021/09/27 14:42:48;;;;;;;2.80;2.20;;;23.40;92.50;;;;;;6135347;23;20411;-83
2021/09/27 14:45:17;;;;;;;3.63;3.37;;;23.70;91.70;;;;;;6136856;23;20458;-82
2021/09/27 14:47:45;;;;;;;3.33;3.10;;;24.00;91.50;;;;;;6166467;23;20398;-82
2021/09/27 14:50:15;;;;;;;3.50;3.20;;;23.90;92.00;;;;;;6165445;23;20474;-83
2021/09/27 14:52:41;;;;;;;3.90;3.20;;;24.10;91.80;;;;;;6166321;23;20403;-83
2021/09/27 14:55:12;;;;;;;3.00;2.80;;;24.20;91.90;;;;;;6164854;23;20411;-83
2021/09/27 14:57:39;;;;;;;4.50;2.60;;;24.20;92.30;;;;;;6169308;23;20401;-83
2021/09/27 15:00:09;;;;;;;3.37;2.60;;;24.00;91.60;;;;;;6170661;23;20407;-82
2021/09/27 15:02:36;;;;;;;3.50;2.97;;;24.10;91.40;;;;;;6179071;23;20391;-82
2021/09/27 15:05:05;;;;;;;3.07;2.87;;;24.10;91.70;;;;;;6178373;23;20479;-82
2021/09/27 15:07:32;;;;;;;3.00;2.80;;;24.00;91.70;;;;;;6178491;23;20479;-82
2021/09/27 15:09:59;;;;;;;2.60;2.50;;;23.90;91.80;;;;;;6178503;23;20406;-82
2021/09/27 15:12:27;;;;;;;3.37;2.80;;;23.80;91.80;;;;;;6178410;23;20409;-83
2021/09/27 15:14:54;;;;;;;2.83;2.50;;;23.60;91.60;;;;;;6177780;23;20398;-83
2021/09/27 15:17:21;;;;;;;3.83;2.57;;;23.20;91.80;;;;;;6177670;23;20482;-83
2021/09/27 15:19:47;;;;;;;3.13;2.83;;;23.20;92.00;;;;;;6178465;23;20469;-82
2021/09/27 15:22:14;;;;;;;2.97;2.77;;;23.10;92.40;;;;;;6177668;23;20594;-81
2021/09/27 15:24:41;;;;;;;3.63;3.40;;;22.60;93.10;;;;;;6177274;23;20413;-82
2021/09/27 15:27:08;;;;;;;4.47;3.53;;;22.50;93.30;;;;;;6177521;23;20433;-82
2021/09/27 15:29:36;;;;;;;3.07;2.73;;;22.30;93.70;;;;;;6169591;23;20440;-82
2021/09/27 15:32:06;;;;;;;2.47;2.27;;;22.40;93.20;;;;;;6169047;23;20424;-81
2021/09/27 15:34:36;;;;;;;2.70;2.50;;;22.50;93.10;;;;;;6172122;23;20407;-81
2021/09/27 15:37:03;;;;;;;3.63;2.67;;;22.50;92.90;;;;;;6173286;23;20461;-80
2021/09/27 15:39:32;;;;;;;3.20;2.97;;;22.50;92.90;;;;;;6169731;23;20473;-82
2021/09/27 15:42:00;;;;;;;5.73;2.50;;;22.50;93.40;;;;;;6167951;23;20412;-80
2021/09/27 15:44:29;;;;;;;3.33;2.93;;;22.60;94.20;;;;;;6168339;23;20418;-83
2021/09/27 15:47:01;;;;;;;3.60;3.33;;;22.70;94.40;;;;;;6168310;23;20441;-82
2021/09/27 15:49:29;;;;;;;3.27;3.00;;;22.80;94.60;;;;;;6168069;23;20399;-82
2021/09/27 15:51:55;;;;;;;3.27;3.07;;;22.80;94.60;;;;;;6168438;23;20419;-82
2021/09/27 15:54:22;;;;;;;3.50;3.20;;;22.80;95.10;;;;;;6169426;23;20417;-82
2021/09/27 15:56:50;;;;;;;4.40;4.10;;;22.80;95.30;;;;;;6168524;23;20443;-82
2021/09/27 15:59:17;;;;;;;4.07;3.77;;;22.80;95.30;;;;;;6168027;23;20502;-81
2021/09/27 16:01:43;;;;;;;4.10;3.73;;;22.80;94.60;;;;;;6168195;23;20901;-82
2021/09/27 16:04:11;;;;;;;4.07;3.40;;;22.80;94.70;;;;;;6168348;23;20420;-82
2021/09/27 16:06:38;;;;;;;3.30;3.00;;;22.80;94.20;;;;;;6173604;23;20490;-81
2021/09/27 16:09:05;;;;;;;3.60;3.30;;;22.80;94.40;;;;;;6176381;23;20409;-80
2021/09/27 16:11:32;;;;;;;3.30;3.00;;;22.90;94.80;;;;;;6176282;23;20505;-81
2021/09/27 16:13:59;;;;;;;3.17;2.57;;;22.80;95.20;;;;;;6175049;23;20419;-80
2021/09/27 16:16:31;;;;;;;4.13;3.70;;;22.90;95.30;;;;;;6173172;23;20413;-82
2021/09/27 16:19:27;;;;;;;4.07;3.70;;;22.80;95.20;;;;;;6170803;23;20453;-84
2021/09/27 16:21:53;;;;;;;2.97;2.70;;;22.80;95.30;;;;;;6168607;23;20404;-86
2021/09/27 16:24:20;;;;;;;3.57;3.23;;;22.80;95.40;;;;;;6174556;23;20485;-82
2021/09/27 16:26:49;;;;;;;3.23;2.70;;;22.80;95.40;;;;;;6172523;23;20498;-86
2021/09/27 16:29:20;;;;;;;3.77;2.73;;;22.60;94.50;;;;;;6174609;23;20478;-85
2021/09/27 16:31:58;;;;;;;4.00;2.57;;;22.30;95.10;;;;;;6173047;23;20465;-84
2021/09/27 16:34:31;;;;;;;2.70;2.50;;;22.30;95.30;;;;;;6174096;23;20447;-83
2021/09/27 16:37:02;;;;;;;2.80;2.60;;;22.20;95.20;;;;;;6170661;23;20437;-85
2021/09/27 16:39:43;;;;;;;2.17;2.07;;;22.10;95.50;;;;;;6173338;23;20464;-85
2021/09/27 16:42:14;;;;;;;3.50;2.80;;;22.00;95.40;;;;;;6173315;23;20515;-84
2021/09/27 16:44:57;;;;;;;5.27;3.00;;;21.80;95.60;;;;;;6171744;23;20421;-86
2021/09/27 16:47:32;;;;;;;2.60;2.40;;;21.80;96.00;;;;;;6142099;23;20414;-84
2021/09/27 16:50:36;;;;;;;2.90;2.70;;;22.00;96.40;;;;;;6141726;23;20412;-84
2021/09/27 16:53:49;;;;;;;4.73;3.33;;;22.00;96.40;;;;;;6145961;23;20433;-82
2021/09/27 16:56:17;;;;;;;3.70;2.30;;;22.10;96.30;;;;;;6114010;23;20429;-83
2021/09/27 16:58:43;;;;;;;3.03;2.83;;;22.10;96.20;;;;;;6142861;23;20458;-83
2021/09/27 17:01:12;;;;;;;3.10;2.90;;;22.00;96.40;;;;;;6142701;23;20482;-82
2021/09/27 17:03:39;;;;;;;4.00;3.33;;;21.70;96.70;;;;;;6142954;23;20494;-83
2021/09/27 17:06:07;;;;;;;3.30;3.10;;;21.60;97.10;;;;;;6143704;23;20492;-82
2021/09/27 17:08:39;;;;;;;3.30;3.10;;;21.70;97.10;;;;;;6144931;23;20718;-83
2021/09/27 17:11:07;;;;;;;3.57;3.27;;;21.70;97.30;;;;;;6146374;23;20408;-84
2021/09/27 17:13:43;;;;;;;3.73;3.43;;;21.70;97.60;;;;;;6118505;23;20428;-83
2021/09/27 17:19:06;;;;;;;3.27;2.90;;;21.70;97.60;;;;;;6144129;23;20448;-84
2021/09/27 17:22:09;;;;;;;2.87;2.63;;;21.60;97.50;;;;;;6146047;23;20407;-83
2021/09/27 17:24:38;;;;;;;2.83;2.63;;;21.50;97.60;;;;;;6141480;23;20439;-81
2021/09/27 17:29:58;;;;;;;3.93;3.20;;;21.40;97.80;;;;;;6149608;23;20403;-86
2021/09/27 17:35:38;;;;;;;3.53;3.33;;;21.10;98.10;;;;;;6143807;23;20424;-83
2021/09/27 17:38:05;;;;;;;4.00;3.60;;;20.90;98.30;;;;;;6144956;23;20758;-82
2021/09/27 17:40:34;;;;;;;3.90;3.40;;;20.80;98.50;;;;;;6144368;23;20448;-83
2021/09/27 17:43:01;;;;;;;3.93;3.57;;;20.80;98.70;;;;;;6145095;23;20407;-83
2021/09/27 17:45:29;;;;;;;3.50;3.00;;;20.70;98.60;;;;;;6151442;23;20502;-82
2021/09/27 17:47:56;;;;;;;3.20;2.90;;;20.70;98.80;;;;;;6174672;23;20415;-81
2021/09/27 17:50:26;;;;;;;3.87;3.57;;;20.50;99.10;;;;;;6175269;23;20411;-82
2021/09/27 17:52:53;;;;;;;5.43;4.20;;;20.50;99.20;;;;;;6173903;23;20407;-84
2021/09/27 17:55:21;;;;;;;3.80;3.50;;;20.30;99.50;;;;;;6171402;23;20431;-84
2021/09/27 17:58:18;;;;;;;3.37;3.07;;;20.10;99.80;;;;;;6176813;23;20405;-84
2021/09/27 18:00:46;;;;;;;3.60;3.40;;;20.00;99.90;;;;;;6162660;23;20450;-84
2021/09/27 18:03:13;;;;;;;3.80;3.53;;;20.00;99.90;;;;;;6165183;23;20419;-83
2021/09/27 18:05:40;;;;;;;3.57;3.27;;;19.90;99.90;;;;;;6165678;23;20438;-83
2021/09/27 18:08:07;;;;;;;4.03;3.63;;;19.80;99.90;;;;;;6167649;23;20437;-87
2021/09/27 18:10:34;;;;;;;3.87;3.57;;;19.70;99.90;;;;;;6166403;23;20420;-85
2021/09/27 18:13:01;;;;;;;3.70;3.40;;;19.70;99.90;;;;;;6167929;23;20406;-86
2021/09/27 18:15:30;;;;;;;4.10;3.80;;;19.70;99.90;;;;;;6165213;23;20461;-85
2021/09/27 18:17:57;;;;;;;3.97;2.90;;;19.60;99.90;;;;;;6166936;23;20452;-86
2021/09/27 18:20:27;;;;;;;3.60;3.30;;;19.60;99.90;;;;;;6167994;23;20457;-87
2021/09/27 18:22:54;;;;;;;3.63;3.33;;;19.60;99.90;;;;;;6169091;23;20421;-85
2021/09/27 18:26:04;;;;;;;4.00;3.60;;;19.60;99.90;;;;;;6169734;23;20426;-85
2021/09/27 18:28:31;;;;;;;4.53;3.40;;;19.60;99.90;;;;;;6169301;23;20497;-84
2021/09/27 18:31:00;;;;;;;4.37;3.70;;;19.60;99.90;;;;;;6169986;23;20419;-85
2021/09/27 18:47:43;;;;;;;7.33;4.20;;;18.90;99.90;;;;;;5909415;24;20441;-84
2021/09/27 19:04:00;;;;;;;4.40;2.90;;;18.70;99.90;;;;;;5901197;24;20413;-84
2021/09/27 19:39:27;;;;;;;4.80;3.50;;;18.90;99.90;;;;;;6167237;23;20505;-85
2021/09/27 19:42:02;;;;;;;5.13;4.10;;;18.90;99.90;;;;;;6168951;23;20487;-86
2021/09/27 19:47:52;;;;;;;3.90;3.60;;;18.90;99.90;;;;;;6074943;23;20398;-86
2021/09/27 19:50:22;;;;;;;4.40;3.53;;;18.90;99.90;;;;;;6047765;23;20760;-85
2021/09/27 19:52:50;;;;;;;4.33;3.90;;;18.90;99.90;;;;;;6108690;23;20479;-83
2021/09/27 19:55:21;;;;;;;5.27;4.03;;;18.80;99.90;;;;;;6138386;23;20430;-85
2021/09/27 19:57:49;;;;;;;5.00;3.60;;;18.90;99.90;;;;;;6138834;23;21251;-85
2021/09/27 20:00:17;;;;;;;4.17;3.77;;;18.90;99.90;;;;;;6139337;23;20450;-83
2021/09/27 20:02:45;;;;;;;3.70;3.40;;;18.80;99.90;;;;;;6140561;23;20413;-86
2021/09/27 20:05:16;;;;;;;4.10;3.80;;;18.70;99.90;;;;;;6139228;23;20493;-85
2021/09/27 20:07:47;;;;;;;4.23;3.80;;;18.80;99.90;;;;;;6140369;23;20423;-84
2021/09/27 20:10:18;;;;;;;4.73;3.77;;;18.80;99.90;;;;;;6140559;23;20478;-86
2021/09/27 20:12:45;;;;;;;4.00;3.70;;;18.70;99.90;;;;;;6139488;23;20403;-86
2021/09/27 20:15:22;;;;;;;4.07;3.77;;;18.70;99.90;;;;;;6139830;23;20449;-88
2021/09/27 20:17:49;;;;;;;3.40;3.20;;;18.70;99.90;;;;;;6140018;23;20414;-86
2021/09/27 20:20:21;;;;;;;5.87;5.37;;;18.70;99.90;;;;;;6138573;23;20518;-86
2021/09/27 20:22:51;;;;;;;3.90;3.60;;;18.70;99.90;;;;;;6139725;23;20414;-85
2021/09/27 20:25:25;;;;;;;5.63;5.07;;;18.70;99.90;;;;;;6140729;23;20446;-85
2021/09/27 20:27:52;;;;;;;4.30;3.90;;;18.80;99.90;;;;;;6142597;23;20402;-83
2021/09/27 20:30:22;;;;;;;4.90;4.40;;;18.80;99.90;;;;;;6141302;23;20404;-84
2021/09/27 20:33:07;;;;;;;5.60;4.33;;;18.80;99.90;;;;;;6134969;23;20404;-84
2021/09/27 20:35:46;;;;;;;4.53;4.23;;;18.70;99.90;;;;;;6131934;23;20453;-84
2021/09/27 20:38:36;;;;;;;4.27;3.87;;;18.70;99.90;;;;;;6131726;23;20484;-87
2021/09/27 20:41:11;;;;;;;4.70;4.40;;;18.80;99.90;;;;;;6131583;23;20451;-86
2021/09/27 20:43:50;;;;;;;4.00;3.70;;;18.60;99.90;;;;;;6131301;23;20422;-86
2021/09/27 20:46:27;;;;;;;4.63;4.17;;;18.40;99.90;;;;;;6135872;23;20518;-87
2021/09/27 20:49:16;;;;;;;4.67;4.10;;;18.20;99.90;;;;;;6152437;23;20833;-88
2021/09/27 20:52:56;;;;;;;;;;;;;;;;;;;;;
